Time;durP1;ratioP1;P1;durP2;ratioP2;P2;SDS_P1;SDS_P2;PMS_P1;PMS_P2;Temp;Humidity;BMP_temperature;BMP_pressure;BME280_temperature;BME280_humidity;BME280_pressure;Samples;Min_cycle;Max_cycle;Signal;HPM_P1;HPM_P2
2023/11/03 00:01:11;;;;;;;2.00;0.85;;;;;;;9.78;100.00;97536.25;4980453;28;20092;-76
2023/11/03 00:03:37;;;;;;;3.83;1.23;;;;;;;9.81;100.00;97533.09;4970695;28;20069;-76
2023/11/03 00:06:03;;;;;;;3.20;1.63;;;;;;;9.71;100.00;97507.88;4986570;28;20033;-75
2023/11/03 00:08:30;;;;;;;3.63;0.75;;;;;;;9.78;100.00;97525.59;4969656;28;20046;-76
2023/11/03 00:10:58;;;;;;;5.30;1.98;;;;;;;9.81;100.00;97503.78;4951428;28;20377;-77
2023/11/03 00:13:23;;;;;;;4.18;0.88;;;;;;;9.76;100.00;97507.16;4971044;28;20027;-76
2023/11/03 00:15:49;;;;;;;6.47;1.60;;;;;;;9.88;100.00;97513.28;4971884;28;20049;-75
2023/11/03 00:18:14;;;;;;;3.93;1.00;;;;;;;9.82;100.00;97486.78;4953668;28;20109;-75
2023/11/03 00:20:40;;;;;;;5.67;2.00;;;;;;;9.90;100.00;97473.06;4971465;28;20495;-74
2023/11/03 00:23:07;;;;;;;8.00;1.23;;;;;;;9.96;100.00;97465.97;4970133;28;20034;-75
2023/11/03 00:25:33;;;;;;;2.83;0.90;;;;;;;9.92;100.00;97444.31;5010810;28;20034;-76
2023/11/03 00:27:59;;;;;;;2.42;0.80;;;;;;;9.84;100.00;97424.22;4969409;28;20109;-77
2023/11/03 00:30:24;;;;;;;4.60;0.87;;;;;;;9.86;100.00;97439.97;4969706;28;20043;-75
2023/11/03 00:32:49;;;;;;;3.47;1.23;;;;;;;9.76;100.00;97429.09;5012168;28;20044;-76
2023/11/03 00:35:16;;;;;;;4.00;0.80;;;;;;;9.70;100.00;97445.00;4953524;28;20043;-75
2023/11/03 00:37:41;;;;;;;1.90;1.00;;;;;;;9.71;100.00;97457.25;5011482;28;20475;-77
2023/11/03 00:40:08;;;;;;;4.60;1.43;;;;;;;9.65;100.00;97471.53;4970656;28;20027;-76
2023/11/03 00:42:34;;;;;;;3.72;0.70;;;;;;;9.62;100.00;97457.88;4969192;28;20447;-76
2023/11/03 00:44:59;;;;;;;5.93;1.20;;;;;;;9.71;100.00;97456.44;4968955;28;20038;-76
2023/11/03 00:47:25;;;;;;;3.73;0.93;;;;;;;9.68;100.00;97459.59;4967515;28;20865;-76
2023/11/03 00:49:52;;;;;;;4.80;1.10;;;;;;;9.68;100.00;97468.38;4969662;28;20026;-75
2023/11/03 00:52:18;;;;;;;3.53;0.98;;;;;;;9.51;100.00;97441.69;4985524;28;20050;-76
2023/11/03 00:54:44;;;;;;;5.20;1.42;;;;;;;9.59;100.00;97467.13;5011531;28;20548;-75
2023/11/03 00:57:09;;;;;;;4.43;1.20;;;;;;;9.60;100.00;97442.16;5009519;28;20119;-75
2023/11/03 00:59:34;;;;;;;6.32;2.33;;;;;;;9.58;100.00;97444.22;4986697;28;20030;-76
2023/11/03 01:02:00;;;;;;;5.27;1.00;;;;;;;9.52;100.00;97450.50;4953456;28;20122;-75
2023/11/03 01:04:25;;;;;;;2.83;1.00;;;;;;;9.51;100.00;97433.72;4969190;28;20376;-76
2023/11/03 01:06:50;;;;;;;9.90;2.17;;;;;;;9.65;100.00;97449.44;5037508;28;20165;-75
2023/11/03 01:09:16;;;;;;;5.90;1.30;;;;;;;9.51;100.00;97427.59;5000190;28;20062;-76
2023/11/03 01:11:41;;;;;;;4.60;0.97;;;;;;;9.49;100.00;97429.66;4977771;28;20031;-76
2023/11/03 01:14:09;;;;;;;7.43;1.23;;;;;;;9.63;100.00;97425.69;4969137;28;20043;-75
2023/11/03 01:16:36;;;;;;;2.85;1.83;;;;;;;9.61;100.00;97414.44;4968412;28;20029;-77
2023/11/03 01:19:04;;;;;;;3.63;0.70;;;;;;;9.66;100.00;97409.22;4984968;28;20034;-75
2023/11/03 01:21:31;;;;;;;3.17;1.45;;;;;;;9.69;100.00;97387.44;4968301;28;20023;-74
2023/11/03 01:23:56;;;;;;;7.15;1.20;;;;;;;9.69;100.00;97392.78;4969032;28;20030;-76
2023/11/03 01:26:25;;;;;;;4.23;1.10;;;;;;;9.79;100.00;97378.03;4952263;28;20442;-77
2023/11/03 01:29:09;;;;;;;3.22;1.80;;;;;;;9.82;100.00;97362.34;4968961;28;20128;-75
2023/11/03 01:31:52;;;;;;;3.97;1.30;;;;;;;9.68;100.00;97316.56;5042291;28;20174;-76
2023/11/03 01:34:36;;;;;;;3.50;1.38;;;;;;;9.71;100.00;97294.75;4969347;28;20046;-76
2023/11/03 01:37:20;;;;;;;2.78;1.08;;;;;;;9.82;100.00;97317.06;4966841;28;20104;-76
2023/11/03 01:40:08;;;;;;;3.80;1.73;;;;;;;9.69;100.00;97288.88;4968877;28;20464;-76
2023/11/03 01:42:53;;;;;;;2.53;1.02;;;;;;;9.70;100.00;97293.16;5000904;28;20415;-77
2023/11/03 01:45:38;;;;;;;5.47;1.50;;;;;;;9.66;100.00;97280.56;4968687;28;20508;-76
2023/11/03 01:48:22;;;;;;;6.03;1.17;;;;;;;9.76;100.00;97293.25;5036253;28;20121;-76
2023/11/03 01:51:06;;;;;;;8.63;2.78;;;;;;;9.78;100.00;97296.47;4969756;28;20049;-75
2023/11/03 01:53:50;;;;;;;2.55;1.10;;;;;;;9.73;100.00;97282.00;4963416;28;20100;-74
2023/11/03 01:56:35;;;;;;;7.03;1.35;;;;;;;9.79;100.00;97295.44;4969657;28;20137;-76
2023/11/03 01:59:19;;;;;;;2.28;1.23;;;;;;;9.70;100.00;97250.53;4994202;28;20430;-74
2023/11/03 02:02:06;;;;;;;3.42;1.63;;;;;;;9.72;100.00;97242.31;4982607;28;20049;-75
2023/11/03 02:04:50;;;;;;;7.10;0.90;;;;;;;9.73;100.00;97252.72;5010320;28;20063;-75
2023/11/03 02:07:34;;;;;;;5.65;1.65;;;;;;;9.66;100.00;97249.41;4968774;28;20576;-75
2023/11/03 02:10:18;;;;;;;3.08;1.20;;;;;;;9.55;100.00;97258.28;5009912;28;20054;-75
2023/11/03 02:13:04;;;;;;;4.97;1.10;;;;;;;9.77;100.00;97260.25;4968969;28;20054;-76
2023/11/03 02:15:48;;;;;;;6.82;2.15;;;;;;;9.61;100.00;97254.66;4959559;28;20707;-76
2023/11/03 02:18:32;;;;;;;2.70;1.77;;;;;;;9.62;100.00;97256.28;4967334;28;20510;-75
2023/11/03 02:21:16;;;;;;;4.63;1.33;;;;;;;9.51;100.00;97244.63;4965206;28;20046;-76
2023/11/03 02:24:00;;;;;;;3.23;0.90;;;;;;;9.48;100.00;97293.06;4968919;28;20049;-76
2023/11/03 02:26:45;;;;;;;4.63;1.27;;;;;;;9.36;100.00;97291.50;4961266;28;20042;-76
2023/11/03 02:29:28;;;;;;;5.68;1.85;;;;;;;9.36;100.00;97307.47;5009359;28;20054;-77
2023/11/03 02:32:13;;;;;;;2.60;1.15;;;;;;;9.41;100.00;97320.88;4981761;28;20053;-75
2023/11/03 02:34:57;;;;;;;5.53;1.50;;;;;;;9.22;100.00;97288.31;4963459;28;20050;-76
2023/11/03 02:37:41;;;;;;;8.30;1.70;;;;;;;9.23;100.00;97314.69;4960584;28;20046;-77
2023/11/03 02:40:25;;;;;;;5.95;1.35;;;;;;;9.12;100.00;97331.50;4966042;28;20514;-77
2023/11/03 02:43:09;;;;;;;6.65;1.38;;;;;;;9.16;100.00;97335.31;4989278;28;20557;-76
2023/11/03 02:45:53;;;;;;;4.43;2.00;;;;;;;9.10;100.00;97317.63;4986594;28;20096;-76
2023/11/03 02:48:37;;;;;;;6.60;1.00;;;;;;;9.19;100.00;97323.38;4967860;28;20069;-76
2023/11/03 02:51:21;;;;;;;3.67;1.85;;;;;;;9.14;100.00;97310.00;4970320;28;20127;-76
2023/11/03 02:54:07;;;;;;;6.63;1.77;;;;;;;9.16;100.00;97331.84;5047889;28;20412;-76
2023/11/03 02:56:51;;;;;;;4.40;1.08;;;;;;;9.11;100.00;97316.59;4971581;28;20411;-76
2023/11/03 02:59:35;;;;;;;7.03;1.13;;;;;;;9.12;100.00;97306.75;4970322;28;20093;-76
2023/11/03 03:02:20;;;;;;;5.70;1.50;;;;;;;9.21;100.00;97300.81;5012709;28;20104;-76
2023/11/03 03:05:05;;;;;;;5.28;1.17;;;;;;;9.02;100.00;97286.09;4971732;28;20050;-75
2023/11/03 03:07:49;;;;;;;5.15;1.63;;;;;;;9.03;100.00;97296.47;4964543;28;20041;-75
2023/11/03 03:10:33;;;;;;;5.40;1.20;;;;;;;8.96;100.00;97295.00;4981516;28;20097;-75
2023/11/03 03:13:17;;;;;;;6.88;1.30;;;;;;;8.93;100.00;97298.16;4969037;28;20161;-75
2023/11/03 03:16:01;;;;;;;4.47;1.83;;;;;;;8.98;100.00;97303.56;5004970;28;20112;-76
2023/11/03 03:18:46;;;;;;;1.95;1.00;;;;;;;8.85;100.00;97281.50;4970516;28;20117;-76
2023/11/03 03:21:30;;;;;;;4.35;1.35;;;;;;;8.87;100.00;97284.75;5010241;28;20090;-75
2023/11/03 03:24:15;;;;;;;4.82;2.65;;;;;;;9.05;100.00;97280.28;5011853;28;20093;-75
2023/11/03 03:26:59;;;;;;;3.70;1.45;;;;;;;8.84;100.00;97239.19;4965330;28;20058;-76
2023/11/03 03:29:43;;;;;;;6.13;1.58;;;;;;;8.86;100.00;97245.88;5050891;28;20049;-76
2023/11/03 03:32:27;;;;;;;6.18;0.88;;;;;;;8.78;100.00;97259.56;4969834;28;20045;-76
2023/11/03 03:35:12;;;;;;;3.90;0.93;;;;;;;8.70;100.00;97262.56;4993342;28;20046;-75
2023/11/03 03:37:56;;;;;;;3.42;1.50;;;;;;;8.74;100.00;97274.38;4998527;28;20085;-75
2023/11/03 03:40:40;;;;;;;2.25;1.08;;;;;;;8.79;100.00;97286.97;5009922;28;20041;-76
2023/11/03 03:43:23;;;;;;;3.72;1.50;;;;;;;8.61;100.00;97248.03;5050607;28;20060;-76
2023/11/03 03:46:45;;;;;;;5.70;1.25;;;;;;;8.75;100.00;97293.78;5012836;28;20053;-75
2023/11/03 03:50:06;;;;;;;5.50;1.10;;;;;;;8.62;100.00;97289.53;5010765;28;20170;-75
2023/11/03 03:53:29;;;;;;;6.95;1.20;;;;;;;8.59;100.00;97271.38;4994424;28;20067;-76
2023/11/03 03:56:51;;;;;;;3.47;0.90;;;;;;;8.64;100.00;97282.16;5005424;28;20531;-76
2023/11/03 04:00:13;;;;;;;4.97;1.85;;;;;;;8.58;100.00;97249.31;4969349;28;20481;-75
2023/11/03 04:03:35;;;;;;;6.13;1.45;;;;;;;8.57;100.00;97241.56;4963872;28;20089;-76
2023/11/03 04:06:56;;;;;;;4.75;1.67;;;;;;;8.68;100.00;97195.50;4979924;28;20045;-75
2023/11/03 04:09:41;;;;;;;5.18;1.60;;;;;;;8.64;100.00;97159.81;4981801;28;20126;-76
2023/11/03 04:12:07;;;;;;;4.85;1.70;;;;;;;8.65;100.00;97148.94;4970316;28;20113;-76
2023/11/03 04:14:32;;;;;;;4.00;1.52;;;;;;;8.72;100.00;97143.47;5035286;28;20401;-76
2023/11/03 04:16:57;;;;;;;6.17;1.27;;;;;;;8.75;100.00;97127.03;5038285;28;20039;-75
2023/11/03 04:19:23;;;;;;;4.73;1.50;;;;;;;8.66;100.00;97108.03;5007099;28;20173;-76
2023/11/03 04:21:48;;;;;;;4.40;1.27;;;;;;;8.64;100.00;97072.06;4969194;28;20475;-76
2023/11/03 04:24:13;;;;;;;6.37;1.20;;;;;;;8.64;100.00;97040.97;5053738;28;20124;-76
2023/11/03 04:26:39;;;;;;;8.20;1.87;;;;;;;8.62;100.00;97040.41;4973320;28;20058;-76
2023/11/03 04:29:05;;;;;;;7.65;1.30;;;;;;;8.53;100.00;97060.44;4970385;28;20027;-76
2023/11/03 04:31:30;;;;;;;5.83;1.33;;;;;;;8.61;100.00;97062.69;4968755;28;20050;-75
2023/11/03 04:33:55;;;;;;;4.50;1.37;;;;;;;8.57;100.00;97066.06;4969331;28;20026;-76
2023/11/03 04:36:21;;;;;;;3.27;1.30;;;;;;;8.50;100.00;97052.13;5055136;28;20130;-76
2023/11/03 04:38:46;;;;;;;5.93;1.40;;;;;;;8.39;100.00;97062.56;4968862;28;20034;-75
2023/11/03 04:41:12;;;;;;;10.97;2.37;;;;;;;8.35;100.00;97080.03;5033272;28;20117;-76
2023/11/03 04:43:37;;;;;;;6.83;1.50;;;;;;;8.39;100.00;97073.19;4985066;28;20039;-76
2023/11/03 04:46:03;;;;;;;4.72;1.15;;;;;;;8.26;100.00;97041.56;4951647;28;20512;-76
2023/11/03 04:48:30;;;;;;;10.77;1.30;;;;;;;8.33;100.00;97082.09;5032925;28;20029;-76
2023/11/03 04:50:55;;;;;;;5.82;1.10;;;;;;;8.31;100.00;97062.97;5035930;28;20033;-76
2023/11/03 04:53:21;;;;;;;8.05;1.60;;;;;;;8.36;100.00;97063.03;4986400;28;20034;-76
2023/11/03 04:55:46;;;;;;;3.60;1.13;;;;;;;8.27;100.00;97037.91;4985108;28;20065;-76
2023/11/03 04:58:11;;;;;;;15.50;2.27;;;;;;;8.30;100.00;97012.69;4969708;28;20049;-76
2023/11/03 05:00:38;;;;;;;7.93;1.80;;;;;;;8.19;100.00;97012.53;4969421;28;20031;-76
2023/11/03 05:03:04;;;;;;;4.53;1.40;;;;;;;8.22;100.00;97021.88;4968655;28;20044;-76
2023/11/03 05:05:32;;;;;;;8.07;1.50;;;;;;;8.17;100.00;97025.22;4968743;28;20178;-76
2023/11/03 05:07:58;;;;;;;4.47;1.25;;;;;;;8.06;100.00;97039.38;4969253;28;20522;-76
2023/11/03 05:10:23;;;;;;;8.25;1.45;;;;;;;8.13;100.00;97074.56;4989498;28;20038;-75
2023/11/03 05:12:50;;;;;;;2.93;1.43;;;;;;;8.03;100.00;97075.19;4967887;28;20062;-75
2023/11/03 05:15:15;;;;;;;3.97;1.52;;;;;;;8.05;100.00;97120.09;4990588;28;20043;-76
2023/11/03 05:17:41;;;;;;;8.52;2.17;;;;;;;8.04;100.00;97153.03;5020669;28;20027;-75
2023/11/03 05:20:08;;;;;;;7.80;1.83;;;;;;;8.02;100.00;97139.16;4969483;28;20045;-76
2023/11/03 05:22:34;;;;;;;7.28;1.00;;;;;;;7.98;100.00;97144.16;5034066;28;20025;-76
2023/11/03 05:25:00;;;;;;;4.15;1.00;;;;;;;8.04;100.00;97127.25;4968598;28;20058;-76
2023/11/03 05:27:25;;;;;;;5.72;1.52;;;;;;;7.97;100.00;97100.03;5054490;28;20025;-76
2023/11/03 05:29:51;;;;;;;6.13;1.30;;;;;;;7.88;100.00;97096.09;4967811;28;20062;-75
2023/11/03 05:32:17;;;;;;;6.53;1.07;;;;;;;8.01;100.00;97119.75;5010212;28;20491;-76
2023/11/03 05:34:42;;;;;;;8.60;1.90;;;;;;;8.01;100.00;97108.34;5018103;28;20092;-75
2023/11/03 05:37:07;;;;;;;6.23;1.90;;;;;;;8.05;100.00;97098.84;4969093;28;20031;-76
2023/11/03 05:39:33;;;;;;;6.23;1.43;;;;;;;7.96;100.00;97066.53;5048745;28;20504;-75
2023/11/03 05:41:58;;;;;;;4.20;1.27;;;;;;;8.06;100.00;97062.47;4979497;28;20117;-76
2023/11/03 05:44:24;;;;;;;4.27;1.20;;;;;;;8.02;100.00;97035.56;5003855;28;20065;-74
2023/11/03 05:46:49;;;;;;;7.55;1.58;;;;;;;7.98;100.00;97003.38;4988388;28;20021;-76
2023/11/03 05:49:15;;;;;;;6.03;1.60;;;;;;;7.95;100.00;97009.13;5019157;28;20040;-77
2023/11/03 05:51:41;;;;;;;6.33;1.83;;;;;;;7.77;100.00;96991.56;5003556;28;20478;-75
2023/11/03 05:54:07;;;;;;;2.92;1.02;;;;;;;7.71;100.00;97018.22;5036457;28;20037;-75
2023/11/03 05:56:32;;;;;;;8.93;1.80;;;;;;;7.76;100.00;97036.91;5062765;28;20400;-75
2023/11/03 05:58:57;;;;;;;8.53;1.30;;;;;;;7.71;100.00;97024.34;5062799;28;20036;-76
2023/11/03 06:01:23;;;;;;;8.77;1.20;;;;;;;7.74;100.00;97036.34;5022733;28;20443;-75
2023/11/03 06:03:48;;;;;;;5.83;1.87;;;;;;;7.71;100.00;97027.00;4985883;28;20107;-76
2023/11/03 06:06:15;;;;;;;8.20;1.15;;;;;;;7.74;100.00;97031.84;5028191;28;20040;-75
2023/11/03 06:08:40;;;;;;;16.08;2.28;;;;;;;7.75;100.00;97008.72;4971650;28;20514;-76
2023/11/03 06:11:07;;;;;;;11.00;1.40;;;;;;;7.66;100.00;97010.16;4997697;28;20099;-77
2023/11/03 06:13:37;;;;;;;4.63;1.30;;;;;;;7.75;100.00;97048.56;5035320;28;20029;-75
2023/11/03 06:16:03;;;;;;;10.00;2.75;;;;;;;7.69;100.00;97030.94;5037247;28;20025;-76
2023/11/03 06:18:29;;;;;;;3.10;1.00;;;;;;;7.86;100.00;97063.66;5063768;28;20036;-76
2023/11/03 06:20:54;;;;;;;5.53;1.37;;;;;;;7.84;100.00;97041.84;4968376;28;20023;-76
2023/11/03 06:23:20;;;;;;;9.32;1.48;;;;;;;7.91;100.00;97047.03;5049393;28;20066;-76
2023/11/03 06:25:45;;;;;;;8.47;2.07;;;;;;;7.92;100.00;97019.44;4972006;28;20107;-75
2023/11/03 06:28:12;;;;;;;10.60;1.73;;;;;;;7.90;100.00;97010.91;5046195;28;20067;-76
2023/11/03 06:30:37;;;;;;;6.13;1.45;;;;;;;7.88;100.00;97021.75;5020906;28;20031;-76
2023/11/03 06:33:03;;;;;;;8.00;1.50;;;;;;;7.86;100.00;96997.28;4970671;28;20671;-76
2023/11/03 06:35:30;;;;;;;4.20;1.43;;;;;;;7.87;100.00;96988.28;5041572;28;20113;-75
2023/11/03 06:37:56;;;;;;;4.72;1.55;;;;;;;7.87;100.00;96982.97;5035305;28;20028;-75
2023/11/03 06:40:21;;;;;;;3.78;1.38;;;;;;;7.99;100.00;97017.44;5031224;28;20031;-75
2023/11/03 06:42:47;;;;;;;8.23;1.50;;;;;;;8.03;100.00;97014.09;4987228;28;20433;-76
2023/11/03 06:45:12;;;;;;;6.93;1.60;;;;;;;8.06;100.00;96986.25;4995778;28;20076;-75
2023/11/03 06:47:38;;;;;;;3.90;1.17;;;;;;;8.07;100.00;96998.47;5036432;28;20279;-75
2023/11/03 06:50:04;;;;;;;9.90;1.90;;;;;;;7.90;100.00;96987.78;4971389;28;20073;-75
2023/11/03 06:52:30;;;;;;;7.78;1.75;;;;;;;8.10;100.00;97013.13;4986406;28;20414;-75
2023/11/03 06:54:58;;;;;;;6.35;2.10;;;;;;;8.14;100.00;97000.97;5013789;28;20049;-75
2023/11/03 06:57:24;;;;;;;9.80;1.55;;;;;;;8.04;100.00;96962.56;4969832;28;20411;-75
2023/11/03 06:59:49;;;;;;;8.43;1.58;;;;;;;7.98;100.00;96998.06;5011552;28;20025;-75
2023/11/03 07:02:15;;;;;;;8.57;1.33;;;;;;;8.11;100.00;97043.97;4990737;28;20058;-75
2023/11/03 07:04:41;;;;;;;4.70;1.50;;;;;;;8.06;100.00;97071.25;5031012;28;20398;-76
2023/11/03 07:07:06;;;;;;;8.38;1.85;;;;;;;7.86;100.00;97062.88;4988443;28;20285;-75
2023/11/03 07:09:32;;;;;;;6.95;1.60;;;;;;;8.02;100.00;97108.09;4969749;28;20372;-75
2023/11/03 07:11:57;;;;;;;6.60;1.40;;;;;;;7.87;100.00;97081.22;5013391;28;20063;-75
2023/11/03 07:14:24;;;;;;;3.73;1.17;;;;;;;8.02;100.00;97126.69;4969995;28;20840;-76
2023/11/03 07:16:53;;;;;;;8.23;1.50;;;;;;;7.93;100.00;97108.69;4969527;28;20034;-76
2023/11/03 07:19:19;;;;;;;4.07;1.48;;;;;;;8.00;100.00;97133.28;5046626;28;20094;-75
2023/11/03 07:21:51;;;;;;;;;;;;;;;8.05;100.00;97122.75;4986955;28;20064;-75
2023/11/03 07:24:17;;;;;;;5.97;1.65;;;;;;;7.95;100.00;97099.44;5009343;28;19946;-75
2023/11/03 07:26:45;;;;;;;6.80;1.65;;;;;;;8.03;100.00;97143.44;4970732;28;20041;-75
2023/11/03 07:29:11;;;;;;;6.22;1.20;;;;;;;8.12;100.00;97141.22;5003345;28;20157;-75
2023/11/03 07:31:39;;;;;;;9.13;1.85;;;;;;;7.97;100.00;97097.34;5022325;28;20025;-75
2023/11/03 07:34:05;;;;;;;5.13;1.30;;;;;;;8.13;100.00;97124.25;4971002;28;20073;-76
2023/11/03 07:36:31;;;;;;;5.18;1.55;;;;;;;8.16;100.00;97091.88;4984923;28;20476;-76
2023/11/03 07:38:58;;;;;;;5.67;1.83;;;;;;;8.29;100.00;97073.03;4982457;28;20031;-76
2023/11/03 07:41:24;;;;;;;6.30;1.35;;;;;;;8.27;100.00;97059.16;4967941;28;20643;-75
2023/11/03 07:43:49;;;;;;;6.13;2.30;;;;;;;8.14;100.00;97038.16;4969188;28;20043;-75
2023/11/03 07:46:15;;;;;;;8.50;2.85;;;;;;;8.01;100.00;97047.25;4970913;28;20029;-75
2023/11/03 07:48:40;;;;;;;6.50;1.60;;;;;;;8.28;100.00;97092.66;4985503;28;20629;-75
2023/11/03 07:51:05;;;;;;;6.20;1.60;;;;;;;8.26;100.00;97057.53;4979655;28;20027;-75
2023/11/03 07:53:31;;;;;;;6.60;1.63;;;;;;;8.21;100.00;97030.88;4950848;28;20496;-75
2023/11/03 07:55:56;;;;;;;7.47;1.63;;;;;;;8.04;100.00;97026.31;4970635;28;20281;-75
2023/11/03 07:58:22;;;;;;;9.87;1.47;;;;;;;8.19;100.00;97081.59;4970437;28;20031;-75
2023/11/03 08:00:49;;;;;;;8.57;2.28;;;;;;;8.32;100.00;97061.91;4969357;28;20037;-75
2023/11/03 08:03:15;;;;;;;3.55;1.45;;;;;;;8.48;100.00;97039.09;4980610;28;20083;-75
2023/11/03 08:05:41;;;;;;;;;;;;;;;8.32;100.00;97022.03;4969449;28;20457;-75
2023/11/03 08:08:07;;;;;;;6.82;1.60;;;;;;;8.40;100.00;97050.91;4970063;28;19914;-76
2023/11/03 08:10:33;;;;;;;;;;;;;;;8.38;100.00;97042.34;4969636;28;20391;-74
2023/11/03 08:12:58;;;;;;;7.43;1.15;;;;;;;8.48;100.00;97027.66;4953033;28;19914;-75
2023/11/03 08:15:23;;;;;;;9.68;1.70;;;;;;;8.47;100.00;96992.28;4969287;28;20049;-75
2023/11/03 08:17:49;;;;;;;4.70;1.37;;;;;;;8.39;100.00;96950.13;4970062;28;20116;-74
2023/11/03 08:20:15;;;;;;;8.27;1.83;;;;;;;8.58;100.00;96998.56;4969039;28;20045;-75
2023/11/03 08:22:42;;;;;;;6.60;1.30;;;;;;;8.57;100.00;96963.22;4968859;28;20027;-75
2023/11/03 08:25:08;;;;;;;5.10;1.85;;;;;;;8.58;100.00;96948.06;4969117;28;20050;-75
2023/11/03 08:27:34;;;;;;;9.13;1.70;;;;;;;8.81;100.00;96942.56;4980713;28;20023;-75
2023/11/03 08:30:00;;;;;;;4.43;1.05;;;;;;;8.86;100.00;96923.22;4968993;28;20449;-75
2023/11/03 08:32:27;;;;;;;6.90;1.95;;;;;;;8.98;100.00;96923.91;4981626;28;20027;-75
2023/11/03 08:34:52;;;;;;;8.63;2.08;;;;;;;8.95;100.00;96886.38;4970293;28;20113;-75
2023/11/03 08:37:17;;;;;;;3.30;1.03;;;;;;;8.96;100.00;96793.00;4968667;28;20724;-75
2023/11/03 08:39:43;;;;;;;7.03;1.33;;;;;;;8.97;100.00;96829.19;4968537;28;20612;-75
2023/11/03 08:42:08;;;;;;;6.45;1.42;;;;;;;9.11;100.00;96834.94;4969995;28;20146;-76
2023/11/03 08:44:34;;;;;;;9.73;2.17;;;;;;;9.08;100.00;96806.16;4968788;28;20034;-75
2023/11/03 08:46:59;;;;;;;9.97;2.10;;;;;;;9.39;100.00;96809.97;4983619;28;20070;-75
2023/11/03 08:49:25;;;;;;;5.97;2.00;;;;;;;9.62;100.00;96800.06;4966711;28;20109;-75
2023/11/03 08:51:51;;;;;;;5.00;1.48;;;;;;;10.44;100.00;96779.38;4968184;28;20294;-75
2023/11/03 08:54:18;;;;;;;6.32;1.95;;;;;;;10.33;100.00;96629.22;4980031;28;20442;-76
2023/11/03 08:56:44;;;;;;;6.45;1.40;;;;;;;10.95;100.00;96665.66;4969297;28;20038;-75
2023/11/03 08:59:09;;;;;;;3.97;1.73;;;;;;;10.19;100.00;96433.53;4969631;28;20030;-75
2023/11/03 09:01:34;;;;;;;7.07;1.63;;;;;;;10.61;100.00;96432.50;4968340;28;20411;-75
2023/11/03 09:04:01;;;;;;;7.97;2.00;;;;;;;11.46;100.00;96501.19;4968567;28;20169;-76
2023/11/03 09:06:27;;;;;;;6.70;1.40;;;;;;;12.73;100.00;96486.34;4952108;28;20543;-75
2023/11/03 09:08:52;;;;;;;5.03;1.45;;;;;;;13.06;100.00;96233.09;4968180;28;20113;-75
2023/11/03 09:11:17;;;;;;;5.37;1.57;;;;;;;14.09;100.00;96065.25;4984183;28;20395;-75
2023/11/03 09:13:53;;;;;;;9.73;1.73;;;;;;;13.85;100.00;95743.84;4984146;28;20450;-76
2023/11/03 09:16:19;;;;;;;2.58;1.15;;;;;;;12.46;100.00;95746.78;4968254;28;20035;-75
2023/11/03 09:18:46;;;;;;;4.63;1.42;;;;;;;12.50;100.00;95917.34;4969231;28;20034;-75
2023/11/03 09:21:11;;;;;;;7.13;1.25;;;;;;;11.44;100.00;95822.41;4984433;28;20395;-75
2023/11/03 09:23:37;;;;;;;6.22;1.65;;;;;;;10.97;100.00;95991.09;4984440;28;20045;-75
2023/11/03 09:26:04;;;;;;;6.80;1.53;;;;;;;10.84;100.00;96255.84;4968117;28;20551;-76
2023/11/03 09:28:30;;;;;;;10.10;1.70;;;;;;;10.51;100.00;96378.09;4969028;28;20039;-76
2023/11/03 09:30:56;;;;;;;11.13;1.48;;;;;;;10.00;100.00;96441.22;4957012;28;20031;-75
2023/11/03 09:33:22;;;;;;;16.42;4.10;;;;;;;9.88;100.00;96654.56;4963943;28;20384;-75
2023/11/03 09:35:47;;;;;;;9.20;1.73;;;;;;;9.99;100.00;96768.13;4967896;28;20180;-75
2023/11/03 09:38:15;;;;;;;5.93;1.53;;;;;;;9.34;100.00;96703.47;4967805;28;20046;-75
2023/11/03 09:40:42;;;;;;;6.70;1.83;;;;;;;9.52;100.00;96915.25;4983735;28;20592;-75
2023/11/03 09:43:09;;;;;;;9.80;1.30;;;;;;;9.55;100.00;96901.44;4968892;28;20055;-75
2023/11/03 09:45:36;;;;;;;8.65;1.50;;;;;;;9.38;100.00;96953.97;4963543;28;20096;-75
2023/11/03 09:48:02;;;;;;;7.15;1.50;;;;;;;9.45;100.00;96986.53;4968764;28;20046;-75
2023/11/03 09:50:27;;;;;;;6.93;2.00;;;;;;;9.23;100.00;96984.66;4967846;28;20096;-75
2023/11/03 09:52:54;;;;;;;3.43;1.30;;;;;;;9.24;100.00;97022.72;4967722;28;20026;-75
2023/11/03 09:55:23;;;;;;;8.05;1.92;;;;;;;9.22;100.00;97000.88;4967708;28;20061;-80
2023/11/03 09:57:53;;;;;;;13.68;1.73;;;;;;;9.44;100.00;97048.84;4967156;28;20058;-75
2023/11/03 10:00:19;;;;;;;5.70;1.58;;;;;;;9.47;100.00;97043.81;4967659;28;20077;-75
2023/11/03 10:02:47;;;;;;;5.70;2.22;;;;;;;9.48;100.00;97031.28;4966912;28;20027;-75
2023/11/03 10:05:17;;;;;;;9.13;1.35;;;;;;;9.36;100.00;97003.97;4976483;28;20058;-75
2023/11/03 10:08:00;;;;;;;12.10;1.58;;;;;;;9.36;100.00;96943.56;4967912;28;20027;-75
2023/11/03 10:10:30;;;;;;;4.90;1.48;;;;;;;9.55;100.00;96970.66;4969628;28;20039;-75
2023/11/03 10:12:57;;;;;;;2.35;1.38;;;;;;;9.83;100.00;97008.81;4964629;28;20063;-76
2023/11/03 10:15:24;;;;;;;10.00;1.65;;;;;;;10.03;100.00;96982.41;4966348;28;20029;-75
2023/11/03 10:17:50;;;;;;;2.83;1.05;;;;;;;9.74;100.00;96861.97;4966491;28;21732;-75
2023/11/03 10:20:20;;;;;;;4.85;1.27;;;;;;;10.02;100.00;96948.84;4952040;28;20126;-75
2023/11/03 10:22:48;;;;;;;6.45;1.20;;;;;;;9.96;100.00;96885.88;4968319;28;20042;-75
2023/11/03 10:25:15;;;;;;;12.18;1.48;;;;;;;9.91;100.00;96857.34;4968506;28;20072;-75
2023/11/03 10:27:40;;;;;;;6.25;1.58;;;;;;;10.15;100.00;96904.97;4966797;28;20118;-76
2023/11/03 10:30:06;;;;;;;6.87;2.03;;;;;;;10.23;100.00;96861.03;4967159;28;20122;-75
2023/11/03 10:32:33;;;;;;;7.60;1.30;;;;;;;10.51;100.00;96870.59;4968408;28;20039;-75
2023/11/03 10:35:02;;;;;;;;;;;;;;;10.66;100.00;96745.34;4967274;28;20388;-75
2023/11/03 10:37:29;;;;;;;5.50;1.63;;;;;;;10.33;100.00;96698.53;4950579;28;19914;-75
2023/11/03 10:39:55;;;;;;;5.60;1.52;;;;;;;10.85;100.00;96819.59;4963501;28;20117;-75
2023/11/03 10:42:23;;;;;;;6.22;1.25;;;;;;;11.09;100.00;96759.38;4963542;28;20457;-75
2023/11/03 10:44:50;;;;;;;3.30;1.48;;;;;;;11.02;100.00;96593.34;4968237;28;20121;-75
2023/11/03 10:47:25;;;;;;;3.75;1.15;;;;;;;10.85;100.00;96609.63;4968018;28;20172;-75
2023/11/03 10:50:00;;;;;;;4.97;1.85;;;;;;;11.08;100.00;96562.13;4982834;28;20458;-75
2023/11/03 10:52:28;;;;;;;7.32;1.50;;;;;;;11.31;100.00;96603.50;4950675;28;20039;-77
2023/11/03 10:55:07;;;;;;;6.18;1.63;;;;;;;10.77;100.00;96485.56;4966582;28;20542;-76
2023/11/03 10:57:32;;;;;;;8.52;2.15;;;;;;;10.59;100.00;96621.31;4966325;28;20043;-75
2023/11/03 11:00:09;;;;;;;3.90;1.02;;;;;;;10.76;100.00;96700.03;4967916;28;20041;-75
2023/11/03 11:03:03;;;;;;;7.25;1.30;;;;;;;10.81;100.00;96735.78;4980656;28;20038;-75
2023/11/03 11:05:47;;;;;;;2.78;1.45;;;;;;;10.69;100.00;96650.66;4964081;28;20045;-76
2023/11/03 11:08:14;;;;;;;5.72;1.30;;;;;;;10.59;100.00;96651.44;4966376;28;20433;-75
2023/11/03 11:10:42;;;;;;;2.95;1.20;;;;;;;10.63;100.00;96758.38;4951694;28;20027;-75
2023/11/03 11:13:33;;;;;;;5.68;1.60;;;;;;;10.65;100.00;96761.59;4970169;28;20448;-76
2023/11/03 11:15:59;;;;;;;6.15;1.88;;;;;;;10.68;100.00;96758.44;4963131;28;20122;-75
2023/11/03 11:18:26;;;;;;;5.27;1.83;;;;;;;10.70;100.00;96775.78;4986603;28;20637;-75
2023/11/03 11:20:54;;;;;;;7.47;1.30;;;;;;;10.54;100.00;96828.25;4969108;28;20046;-75
2023/11/03 11:23:23;;;;;;;7.97;2.22;;;;;;;10.52;100.00;96833.03;4971036;28;20084;-75
2023/11/03 11:25:51;;;;;;;5.03;1.30;;;;;;;10.44;100.00;96913.53;4970972;28;20129;-75
2023/11/03 11:28:38;;;;;;;6.25;1.83;;;;;;;10.51;100.00;96956.78;4985792;28;20047;-75
2023/11/03 11:31:23;;;;;;;5.85;1.30;;;;;;;10.70;100.00;97049.72;4962667;28;20118;-75
2023/11/03 11:34:04;;;;;;;2.08;1.85;;;;;;;10.26;100.00;96912.00;4971129;28;20038;-74
2023/11/03 11:36:33;;;;;;;4.78;1.65;;;;;;;10.33;100.00;97063.78;4985447;28;20070;-73
2023/11/03 11:39:12;;;;;;;6.38;1.65;;;;;;;10.58;100.00;97103.22;4970676;28;20411;-74
2023/11/03 11:41:47;;;;;;;2.60;1.42;;;;;;;10.36;100.00;97076.63;4985593;28;20035;-74
2023/11/03 11:44:15;;;;;;;6.50;1.50;;;;;;;10.25;100.00;97123.66;4985587;28;20062;-75
2023/11/03 11:46:41;;;;;;;7.15;1.40;;;;;;;10.26;100.00;97156.47;4983287;28;20029;-75
2023/11/03 11:49:10;;;;;;;5.93;2.33;;;;;;;10.33;100.00;97149.91;4970763;28;20034;-73
2023/11/03 11:51:36;;;;;;;4.43;1.45;;;;;;;10.30;100.00;97141.59;4969325;28;20039;-75